sensor_id;sensor_type;location;lat;lon;timestamp;P1;durP1;ratioP1;P2;durP2;ratioP2
45136;SDS011;30894;51.740;19.498;2022-12-07T00:01:35;14.20;;;5.88;;
45136;SDS011;30894;51.740;19.498;2022-12-07T00:04:04;17.83;;;5.93;;
45136;SDS011;30894;51.740;19.498;2022-12-07T00:06:37;10.43;;;5.60;;
45136;SDS011;30894;51.740;19.498;2022-12-07T00:09:06;9.40;;;4.47;;
45136;SDS011;30894;51.740;19.498;2022-12-07T00:11:36;8.48;;;3.75;;
45136;SDS011;30894;51.740;19.498;2022-12-07T00:14:04;8.98;;;4.30;;
45136;SDS011;30894;51.740;19.498;2022-12-07T00:16:33;14.13;;;5.50;;
45136;SDS011;30894;51.740;19.498;2022-12-07T00:19:00;8.60;;;4.60;;
45136;SDS011;30894;51.740;19.498;2022-12-07T00:21:28;4.32;;;3.03;;
45136;SDS011;30894;51.740;19.498;2022-12-07T00:23:57;11.82;;;4.95;;
45136;SDS011;30894;51.740;19.498;2022-12-07T00:26:25;8.38;;;4.82;;
45136;SDS011;30894;51.740;19.498;2022-12-07T00:29:06;11.85;;;4.95;;
45136;SDS011;30894;51.740;19.498;2022-12-07T00:31:38;7.25;;;3.47;;
45136;SDS011;30894;51.740;19.498;2022-12-07T00:34:05;12.23;;;4.13;;
45136;SDS011;30894;51.740;19.498;2022-12-07T00:36:32;8.52;;;4.10;;
45136;SDS011;30894;51.740;19.498;2022-12-07T00:38:59;6.90;;;2.72;;
45136;SDS011;30894;51.740;19.498;2022-12-07T00:41:28;14.07;;;6.45;;
45136;SDS011;30894;51.740;19.498;2022-12-07T00:43:55;9.27;;;5.15;;
45136;SDS011;30894;51.740;19.498;2022-12-07T00:46:23;14.82;;;4.90;;
45136;SDS011;30894;51.740;19.498;2022-12-07T00:48:50;8.23;;;3.85;;
45136;SDS011;30894;51.740;19.498;2022-12-07T00:51:19;14.30;;;4.38;;
45136;SDS011;30894;51.740;19.498;2022-12-07T00:53:48;8.35;;;5.03;;
45136;SDS011;30894;51.740;19.498;2022-12-07T00:56:15;12.10;;;5.85;;
45136;SDS011;30894;51.740;19.498;2022-12-07T00:58:42;11.38;;;4.70;;
45136;SDS011;30894;51.740;19.498;2022-12-07T01:01:09;10.93;;;4.43;;
45136;SDS011;30894;51.740;19.498;2022-12-07T01:03:38;4.78;;;2.85;;
45136;SDS011;30894;51.740;19.498;2022-12-07T01:06:04;4.80;;;3.47;;
45136;SDS011;30894;51.740;19.498;2022-12-07T01:08:31;12.88;;;5.13;;
45136;SDS011;30894;51.740;19.498;2022-12-07T01:10:59;11.38;;;4.85;;
45136;SDS011;30894;51.740;19.498;2022-12-07T01:13:30;10.15;;;4.60;;
45136;SDS011;30894;51.740;19.498;2022-12-07T01:15:58;7.53;;;4.03;;
45136;SDS011;30894;51.740;19.498;2022-12-07T01:18:33;8.10;;;3.50;;
45136;SDS011;30894;51.740;19.498;2022-12-07T01:23:33;10.07;;;3.63;;
45136;SDS011;30894;51.740;19.498;2022-12-07T01:26:02;6.18;;;4.00;;
45136;SDS011;30894;51.740;19.498;2022-12-07T01:28:32;6.10;;;3.42;;
45136;SDS011;30894;51.740;19.498;2022-12-07T01:31:00;11.88;;;4.88;;
45136;SDS011;30894;51.740;19.498;2022-12-07T01:33:31;8.57;;;4.25;;
45136;SDS011;30894;51.740;19.498;2022-12-07T01:36:14;7.72;;;3.90;;
45136;SDS011;30894;51.740;19.498;2022-12-07T01:38:42;6.07;;;3.13;;
45136;SDS011;30894;51.740;19.498;2022-12-07T01:41:11;10.48;;;4.93;;
45136;SDS011;30894;51.740;19.498;2022-12-07T01:46:33;12.48;;;5.78;;
45136;SDS011;30894;51.740;19.498;2022-12-07T01:48:59;9.20;;;3.55;;
45136;SDS011;30894;51.740;19.498;2022-12-07T01:51:27;6.18;;;4.13;;
45136;SDS011;30894;51.740;19.498;2022-12-07T01:53:54;7.22;;;3.67;;
45136;SDS011;30894;51.740;19.498;2022-12-07T01:56:22;8.95;;;4.05;;
45136;SDS011;30894;51.740;19.498;2022-12-07T01:58:52;4.88;;;3.05;;
45136;SDS011;30894;51.740;19.498;2022-12-07T02:01:22;4.47;;;2.45;;
45136;SDS011;30894;51.740;19.498;2022-12-07T02:03:48;8.52;;;4.03;;
45136;SDS011;30894;51.740;19.498;2022-12-07T02:06:16;3.60;;;1.65;;
45136;SDS011;30894;51.740;19.498;2022-12-07T02:08:46;3.42;;;2.42;;
45136;SDS011;30894;51.740;19.498;2022-12-07T02:11:13;3.78;;;1.83;;
45136;SDS011;30894;51.740;19.498;2022-12-07T02:13:40;7.18;;;2.97;;
45136;SDS011;30894;51.740;19.498;2022-12-07T02:19:06;2.80;;;1.80;;
45136;SDS011;30894;51.740;19.498;2022-12-07T02:28:07;6.65;;;3.33;;
45136;SDS011;30894;51.740;19.498;2022-12-07T02:30:43;5.20;;;2.83;;
45136;SDS011;30894;51.740;19.498;2022-12-07T02:33:14;4.07;;;2.40;;
45136;SDS011;30894;51.740;19.498;2022-12-07T02:35:48;2.97;;;1.97;;
45136;SDS011;30894;51.740;19.498;2022-12-07T02:38:26;4.22;;;2.47;;
45136;SDS011;30894;51.740;19.498;2022-12-07T02:41:00;3.45;;;2.50;;
45136;SDS011;30894;51.740;19.498;2022-12-07T02:43:40;7.75;;;3.70;;
45136;SDS011;30894;51.740;19.498;2022-12-07T02:46:13;9.85;;;3.50;;
45136;SDS011;30894;51.740;19.498;2022-12-07T02:48:43;5.00;;;2.00;;
45136;SDS011;30894;51.740;19.498;2022-12-07T02:51:11;4.65;;;2.28;;
45136;SDS011;30894;51.740;19.498;2022-12-07T02:53:41;3.88;;;2.05;;
45136;SDS011;30894;51.740;19.498;2022-12-07T02:56:13;3.05;;;2.45;;
45136;SDS011;30894;51.740;19.498;2022-12-07T02:59:07;3.03;;;2.30;;
45136;SDS011;30894;51.740;19.498;2022-12-07T03:01:55;10.60;;;3.70;;
45136;SDS011;30894;51.740;19.498;2022-12-07T03:13:26;8.80;;;4.72;;
45136;SDS011;30894;51.740;19.498;2022-12-07T03:19:08;4.00;;;2.60;;
45136;SDS011;30894;51.740;19.498;2022-12-07T03:21:40;2.70;;;1.73;;
45136;SDS011;30894;51.740;19.498;2022-12-07T03:24:27;3.57;;;2.37;;
45136;SDS011;30894;51.740;19.498;2022-12-07T03:27:20;5.18;;;2.42;;
45136;SDS011;30894;51.740;19.498;2022-12-07T03:29:48;5.15;;;2.65;;
45136;SDS011;30894;51.740;19.498;2022-12-07T03:32:28;1.88;;;1.40;;
45136;SDS011;30894;51.740;19.498;2022-12-07T03:35:05;4.82;;;2.17;;
45136;SDS011;30894;51.740;19.498;2022-12-07T03:37:59;5.03;;;2.42;;
45136;SDS011;30894;51.740;19.498;2022-12-07T03:43:21;8.20;;;2.83;;
45136;SDS011;30894;51.740;19.498;2022-12-07T03:45:52;4.10;;;1.75;;
45136;SDS011;30894;51.740;19.498;2022-12-07T03:52:18;3.30;;;2.22;;
45136;SDS011;30894;51.740;19.498;2022-12-07T03:54:59;5.67;;;1.73;;
45136;SDS011;30894;51.740;19.498;2022-12-07T03:57:52;7.38;;;1.77;;
45136;SDS011;30894;51.740;19.498;2022-12-07T04:00:24;3.65;;;1.75;;
45136;SDS011;30894;51.740;19.498;2022-12-07T04:02:53;3.17;;;2.15;;
45136;SDS011;30894;51.740;19.498;2022-12-07T04:05:19;3.03;;;2.03;;
45136;SDS011;30894;51.740;19.498;2022-12-07T04:07:45;5.10;;;2.58;;
45136;SDS011;30894;51.740;19.498;2022-12-07T04:10:12;2.95;;;1.88;;
45136;SDS011;30894;51.740;19.498;2022-12-07T04:12:39;3.03;;;1.35;;
45136;SDS011;30894;51.740;19.498;2022-12-07T04:15:05;3.55;;;1.90;;
45136;SDS011;30894;51.740;19.498;2022-12-07T04:17:32;1.55;;;1.10;;
45136;SDS011;30894;51.740;19.498;2022-12-07T04:19:59;3.50;;;2.08;;
45136;SDS011;30894;51.740;19.498;2022-12-07T04:22:26;2.72;;;1.65;;
45136;SDS011;30894;51.740;19.498;2022-12-07T04:24:55;3.47;;;2.00;;
45136;SDS011;30894;51.740;19.498;2022-12-07T04:27:21;2.45;;;1.65;;
45136;SDS011;30894;51.740;19.498;2022-12-07T04:29:47;2.58;;;1.70;;
45136;SDS011;30894;51.740;19.498;2022-12-07T04:32:13;2.10;;;1.45;;
45136;SDS011;30894;51.740;19.498;2022-12-07T04:34:40;1.33;;;0.98;;
45136;SDS011;30894;51.740;19.498;2022-12-07T04:37:08;2.75;;;1.63;;
45136;SDS011;30894;51.740;19.498;2022-12-07T04:39:34;2.03;;;1.05;;
45136;SDS011;30894;51.740;19.498;2022-12-07T04:42:00;2.13;;;1.60;;
45136;SDS011;30894;51.740;19.498;2022-12-07T04:44:27;3.67;;;1.50;;
45136;SDS011;30894;51.740;19.498;2022-12-07T04:46:55;3.25;;;1.70;;
45136;SDS011;30894;51.740;19.498;2022-12-07T04:49:23;2.30;;;1.55;;
45136;SDS011;30894;51.740;19.498;2022-12-07T04:51:50;3.20;;;1.52;;
45136;SDS011;30894;51.740;19.498;2022-12-07T04:54:18;4.05;;;1.77;;
45136;SDS011;30894;51.740;19.498;2022-12-07T04:56:46;2.30;;;1.13;;
45136;SDS011;30894;51.740;19.498;2022-12-07T04:59:12;3.08;;;1.48;;
45136;SDS011;30894;51.740;19.498;2022-12-07T05:01:46;1.95;;;1.42;;
45136;SDS011;30894;51.740;19.498;2022-12-07T05:04:13;1.13;;;0.93;;
45136;SDS011;30894;51.740;19.498;2022-12-07T05:06:41;1.58;;;1.48;;
45136;SDS011;30894;51.740;19.498;2022-12-07T05:09:07;2.78;;;1.95;;
45136;SDS011;30894;51.740;19.498;2022-12-07T05:11:35;2.83;;;1.55;;
45136;SDS011;30894;51.740;19.498;2022-12-07T05:16:41;1.70;;;1.38;;
45136;SDS011;30894;51.740;19.498;2022-12-07T05:19:09;2.35;;;1.98;;
45136;SDS011;30894;51.740;19.498;2022-12-07T05:21:38;0.57;;;0.57;;
45136;SDS011;30894;51.740;19.498;2022-12-07T05:24:06;2.03;;;1.10;;
45136;SDS011;30894;51.740;19.498;2022-12-07T05:26:34;2.22;;;1.67;;
45136;SDS011;30894;51.740;19.498;2022-12-07T05:29:01;1.85;;;1.15;;
45136;SDS011;30894;51.740;19.498;2022-12-07T05:31:28;3.05;;;1.90;;
45136;SDS011;30894;51.740;19.498;2022-12-07T05:33:54;1.35;;;1.13;;
45136;SDS011;30894;51.740;19.498;2022-12-07T05:36:21;1.77;;;1.35;;
45136;SDS011;30894;51.740;19.498;2022-12-07T05:38:49;2.63;;;1.50;;
45136;SDS011;30894;51.740;19.498;2022-12-07T05:41:16;1.73;;;1.27;;
45136;SDS011;30894;51.740;19.498;2022-12-07T05:44:02;1.60;;;1.42;;
45136;SDS011;30894;51.740;19.498;2022-12-07T05:46:31;4.00;;;2.33;;
45136;SDS011;30894;51.740;19.498;2022-12-07T05:49:12;3.85;;;1.95;;
45136;SDS011;30894;51.740;19.498;2022-12-07T05:51:47;3.65;;;2.30;;
45136;SDS011;30894;51.740;19.498;2022-12-07T05:54:14;2.42;;;1.75;;
45136;SDS011;30894;51.740;19.498;2022-12-07T05:56:40;3.08;;;1.38;;
45136;SDS011;30894;51.740;19.498;2022-12-07T05:59:11;3.58;;;2.28;;
45136;SDS011;30894;51.740;19.498;2022-12-07T06:01:53;8.98;;;3.17;;
45136;SDS011;30894;51.740;19.498;2022-12-07T06:04:23;4.30;;;2.60;;
45136;SDS011;30894;51.740;19.498;2022-12-07T06:06:51;4.38;;;2.53;;
45136;SDS011;30894;51.740;19.498;2022-12-07T06:09:19;5.80;;;2.50;;
45136;SDS011;30894;51.740;19.498;2022-12-07T06:11:49;4.60;;;2.22;;
45136;SDS011;30894;51.740;19.498;2022-12-07T06:14:38;4.68;;;2.20;;
45136;SDS011;30894;51.740;19.498;2022-12-07T06:17:06;5.65;;;3.20;;
45136;SDS011;30894;51.740;19.498;2022-12-07T06:19:32;3.17;;;1.95;;
45136;SDS011;30894;51.740;19.498;2022-12-07T06:21:59;4.47;;;2.42;;
45136;SDS011;30894;51.740;19.498;2022-12-07T06:24:25;4.20;;;2.75;;
45136;SDS011;30894;51.740;19.498;2022-12-07T06:26:51;5.13;;;2.25;;
45136;SDS011;30894;51.740;19.498;2022-12-07T06:29:18;4.93;;;1.25;;
45136;SDS011;30894;51.740;19.498;2022-12-07T06:31:44;5.78;;;2.55;;
45136;SDS011;30894;51.740;19.498;2022-12-07T06:34:12;1.38;;;1.27;;
45136;SDS011;30894;51.740;19.498;2022-12-07T06:36:41;1.00;;;1.00;;
45136;SDS011;30894;51.740;19.498;2022-12-07T06:39:09;6.30;;;2.47;;
45136;SDS011;30894;51.740;19.498;2022-12-07T06:41:37;5.32;;;2.17;;
45136;SDS011;30894;51.740;19.498;2022-12-07T06:44:04;4.45;;;1.58;;
45136;SDS011;30894;51.740;19.498;2022-12-07T06:46:31;6.50;;;3.25;;
45136;SDS011;30894;51.740;19.498;2022-12-07T06:48:59;0.77;;;0.75;;
45136;SDS011;30894;51.740;19.498;2022-12-07T06:51:25;3.05;;;1.77;;
45136;SDS011;30894;51.740;19.498;2022-12-07T06:53:51;2.30;;;1.98;;
45136;SDS011;30894;51.740;19.498;2022-12-07T06:56:19;4.95;;;1.83;;
45136;SDS011;30894;51.740;19.498;2022-12-07T06:58:51;3.60;;;2.80;;
45136;SDS011;30894;51.740;19.498;2022-12-07T07:01:17;2.75;;;1.50;;
45136;SDS011;30894;51.740;19.498;2022-12-07T07:03:45;6.20;;;3.10;;
45136;SDS011;30894;51.740;19.498;2022-12-07T07:06:13;2.72;;;1.90;;
45136;SDS011;30894;51.740;19.498;2022-12-07T07:08:40;2.40;;;1.77;;
45136;SDS011;30894;51.740;19.498;2022-12-07T07:11:07;7.35;;;2.70;;
45136;SDS011;30894;51.740;19.498;2022-12-07T07:13:34;2.88;;;1.35;;
45136;SDS011;30894;51.740;19.498;2022-12-07T07:16:00;2.25;;;1.88;;
45136;SDS011;30894;51.740;19.498;2022-12-07T07:18:29;2.65;;;1.95;;
45136;SDS011;30894;51.740;19.498;2022-12-07T07:20:58;6.45;;;2.60;;
45136;SDS011;30894;51.740;19.498;2022-12-07T07:23:24;4.32;;;2.05;;
45136;SDS011;30894;51.740;19.498;2022-12-07T07:25:50;5.38;;;2.35;;
45136;SDS011;30894;51.740;19.498;2022-12-07T07:28:17;2.42;;;1.75;;
45136;SDS011;30894;51.740;19.498;2022-12-07T07:30:43;5.30;;;1.73;;
45136;SDS011;30894;51.740;19.498;2022-12-07T07:33:09;4.25;;;2.13;;
45136;SDS011;30894;51.740;19.498;2022-12-07T07:35:36;1.63;;;1.50;;
45136;SDS011;30894;51.740;19.498;2022-12-07T07:38:03;6.15;;;2.80;;
45136;SDS011;30894;51.740;19.498;2022-12-07T07:40:29;3.28;;;1.42;;
45136;SDS011;30894;51.740;19.498;2022-12-07T07:42:56;4.38;;;2.30;;
45136;SDS011;30894;51.740;19.498;2022-12-07T07:45:24;3.58;;;2.33;;
45136;SDS011;30894;51.740;19.498;2022-12-07T07:47:51;3.03;;;2.20;;
45136;SDS011;30894;51.740;19.498;2022-12-07T07:50:18;4.43;;;2.45;;
45136;SDS011;30894;51.740;19.498;2022-12-07T07:52:49;2.53;;;1.58;;
45136;SDS011;30894;51.740;19.498;2022-12-07T07:55:18;3.38;;;2.17;;
45136;SDS011;30894;51.740;19.498;2022-12-07T07:57:46;2.35;;;1.80;;
45136;SDS011;30894;51.740;19.498;2022-12-07T08:00:14;4.93;;;2.97;;
45136;SDS011;30894;51.740;19.498;2022-12-07T08:02:43;3.10;;;1.98;;
45136;SDS011;30894;51.740;19.498;2022-12-07T08:05:11;3.70;;;2.35;;
45136;SDS011;30894;51.740;19.498;2022-12-07T08:07:41;4.13;;;2.58;;
45136;SDS011;30894;51.740;19.498;2022-12-07T08:10:09;6.20;;;2.97;;
45136;SDS011;30894;51.740;19.498;2022-12-07T08:12:39;2.25;;;1.67;;
45136;SDS011;30894;51.740;19.498;2022-12-07T08:15:28;3.58;;;1.90;;
45136;SDS011;30894;51.740;19.498;2022-12-07T08:17:57;4.65;;;3.05;;
45136;SDS011;30894;51.740;19.498;2022-12-07T08:20:23;2.95;;;1.75;;
45136;SDS011;30894;51.740;19.498;2022-12-07T08:22:49;4.15;;;1.95;;
45136;SDS011;30894;51.740;19.498;2022-12-07T08:25:17;6.53;;;2.90;;
45136;SDS011;30894;51.740;19.498;2022-12-07T08:27:43;5.45;;;2.85;;
45136;SDS011;30894;51.740;19.498;2022-12-07T08:30:09;2.97;;;1.92;;
45136;SDS011;30894;51.740;19.498;2022-12-07T08:32:38;7.57;;;3.40;;
45136;SDS011;30894;51.740;19.498;2022-12-07T08:35:08;2.35;;;1.75;;
45136;SDS011;30894;51.740;19.498;2022-12-07T08:37:37;8.23;;;3.88;;
45136;SDS011;30894;51.740;19.498;2022-12-07T08:40:06;3.70;;;2.17;;
45136;SDS011;30894;51.740;19.498;2022-12-07T08:42:35;2.80;;;1.77;;
45136;SDS011;30894;51.740;19.498;2022-12-07T08:45:09;3.20;;;1.73;;
45136;SDS011;30894;51.740;19.498;2022-12-07T08:47:43;4.78;;;2.65;;
45136;SDS011;30894;51.740;19.498;2022-12-07T08:50:25;7.10;;;3.75;;
45136;SDS011;30894;51.740;19.498;2022-12-07T08:52:53;6.25;;;3.05;;
45136;SDS011;30894;51.740;19.498;2022-12-07T08:55:23;4.80;;;2.63;;
45136;SDS011;30894;51.740;19.498;2022-12-07T08:57:49;7.57;;;2.67;;
45136;SDS011;30894;51.740;19.498;2022-12-07T09:00:19;3.83;;;1.70;;
45136;SDS011;30894;51.740;19.498;2022-12-07T09:02:46;2.90;;;1.95;;
45136;SDS011;30894;51.740;19.498;2022-12-07T09:05:13;2.33;;;1.42;;
45136;SDS011;30894;51.740;19.498;2022-12-07T09:07:41;3.35;;;2.35;;
45136;SDS011;30894;51.740;19.498;2022-12-07T09:10:10;3.05;;;1.60;;
45136;SDS011;30894;51.740;19.498;2022-12-07T09:12:37;2.55;;;1.67;;
45136;SDS011;30894;51.740;19.498;2022-12-07T09:15:03;2.85;;;1.40;;
45136;SDS011;30894;51.740;19.498;2022-12-07T09:17:32;3.65;;;1.35;;
45136;SDS011;30894;51.740;19.498;2022-12-07T09:19:59;3.78;;;2.15;;
45136;SDS011;30894;51.740;19.498;2022-12-07T09:22:29;3.53;;;1.58;;
45136;SDS011;30894;51.740;19.498;2022-12-07T09:24:57;2.25;;;1.65;;
45136;SDS011;30894;51.740;19.498;2022-12-07T09:27:24;2.05;;;1.58;;
45136;SDS011;30894;51.740;19.498;2022-12-07T09:29:52;1.88;;;1.42;;
45136;SDS011;30894;51.740;19.498;2022-12-07T09:32:19;1.83;;;1.50;;
45136;SDS011;30894;51.740;19.498;2022-12-07T09:34:45;4.15;;;1.67;;
45136;SDS011;30894;51.740;19.498;2022-12-07T09:37:13;1.20;;;0.98;;
45136;SDS011;30894;51.740;19.498;2022-12-07T09:39:39;11.82;;;2.00;;
45136;SDS011;30894;51.740;19.498;2022-12-07T09:42:07;1.77;;;0.77;;
45136;SDS011;30894;51.740;19.498;2022-12-07T09:44:36;2.33;;;1.65;;
45136;SDS011;30894;51.740;19.498;2022-12-07T09:47:07;2.47;;;1.00;;
45136;SDS011;30894;51.740;19.498;2022-12-07T09:49:35;1.15;;;0.70;;
45136;SDS011;30894;51.740;19.498;2022-12-07T09:54:33;0.65;;;0.65;;
45136;SDS011;30894;51.740;19.498;2022-12-07T09:57:02;0.80;;;0.80;;
45136;SDS011;30894;51.740;19.498;2022-12-07T09:59:28;2.03;;;1.70;;
45136;SDS011;30894;51.740;19.498;2022-12-07T10:01:55;2.00;;;1.27;;
45136;SDS011;30894;51.740;19.498;2022-12-07T10:04:48;1.38;;;0.82;;
45136;SDS011;30894;51.740;19.498;2022-12-07T10:07:15;1.25;;;1.10;;
45136;SDS011;30894;51.740;19.498;2022-12-07T10:09:41;4.00;;;2.22;;
45136;SDS011;30894;51.740;19.498;2022-12-07T10:12:10;3.67;;;1.20;;
45136;SDS011;30894;51.740;19.498;2022-12-07T10:14:38;2.50;;;1.42;;
45136;SDS011;30894;51.740;19.498;2022-12-07T10:20:12;3.35;;;2.33;;
45136;SDS011;30894;51.740;19.498;2022-12-07T10:23:03;3.08;;;1.63;;
45136;SDS011;30894;51.740;19.498;2022-12-07T10:25:34;2.63;;;1.98;;
45136;SDS011;30894;51.740;19.498;2022-12-07T10:28:16;2.47;;;1.90;;
45136;SDS011;30894;51.740;19.498;2022-12-07T10:30:51;2.75;;;1.60;;
45136;SDS011;30894;51.740;19.498;2022-12-07T10:33:32;2.28;;;1.50;;
45136;SDS011;30894;51.740;19.498;2022-12-07T10:41:53;4.60;;;2.90;;
45136;SDS011;30894;51.740;19.498;2022-12-07T10:44:26;3.58;;;2.00;;
45136;SDS011;30894;51.740;19.498;2022-12-07T10:53:12;3.22;;;2.25;;
45136;SDS011;30894;51.740;19.498;2022-12-07T10:56:03;3.90;;;1.73;;
45136;SDS011;30894;51.740;19.498;2022-12-07T11:17:36;4.60;;;3.25;;
45136;SDS011;30894;51.740;19.498;2022-12-07T11:26:17;5.35;;;2.22;;
45136;SDS011;30894;51.740;19.498;2022-12-07T11:29:46;2.35;;;1.50;;
45136;SDS011;30894;51.740;19.498;2022-12-07T11:38:47;2.33;;;1.83;;
45136;SDS011;30894;51.740;19.498;2022-12-07T11:41:20;5.30;;;1.65;;
45136;SDS011;30894;51.740;19.498;2022-12-07T11:46:46;1.65;;;1.13;;
45136;SDS011;30894;51.740;19.498;2022-12-07T11:49:23;1.02;;;0.70;;
45136;SDS011;30894;51.740;19.498;2022-12-07T11:52:09;3.28;;;1.08;;
45136;SDS011;30894;51.740;19.498;2022-12-07T11:54:53;1.80;;;1.23;;
45136;SDS011;30894;51.740;19.498;2022-12-07T11:57:24;4.32;;;1.73;;
45136;SDS011;30894;51.740;19.498;2022-12-07T12:00:12;1.17;;;0.95;;
45136;SDS011;30894;51.740;19.498;2022-12-07T12:02:51;1.00;;;0.73;;
45136;SDS011;30894;51.740;19.498;2022-12-07T12:05:41;1.00;;;0.55;;
45136;SDS011;30894;51.740;19.498;2022-12-07T12:08:21;2.70;;;1.42;;
45136;SDS011;30894;51.740;19.498;2022-12-07T12:13:57;2.78;;;1.55;;
45136;SDS011;30894;51.740;19.498;2022-12-07T12:17:13;2.22;;;1.35;;
45136;SDS011;30894;51.740;19.498;2022-12-07T12:22:43;5.67;;;1.73;;
45136;SDS011;30894;51.740;19.498;2022-12-07T12:25:29;1.50;;;1.30;;
45136;SDS011;30894;51.740;19.498;2022-12-07T12:28:15;3.00;;;1.58;;
45136;SDS011;30894;51.740;19.498;2022-12-07T12:34:03;4.75;;;2.53;;
45136;SDS011;30894;51.740;19.498;2022-12-07T12:45:21;2.80;;;1.85;;
45136;SDS011;30894;51.740;19.498;2022-12-07T12:53:12;5.85;;;2.65;;
45136;SDS011;30894;51.740;19.498;2022-12-07T12:58:31;2.08;;;0.95;;
45136;SDS011;30894;51.740;19.498;2022-12-07T13:04:03;1.85;;;1.10;;
45136;SDS011;30894;51.740;19.498;2022-12-07T13:06:51;3.17;;;1.88;;
45136;SDS011;30894;51.740;19.498;2022-12-07T13:09:23;4.20;;;1.85;;
45136;SDS011;30894;51.740;19.498;2022-12-07T13:12:11;10.25;;;2.80;;
45136;SDS011;30894;51.740;19.498;2022-12-07T13:14:42;4.70;;;2.80;;
45136;SDS011;30894;51.740;19.498;2022-12-07T13:19:59;2.50;;;1.80;;
45136;SDS011;30894;51.740;19.498;2022-12-07T13:25:02;2.05;;;1.17;;
45136;SDS011;30894;51.740;19.498;2022-12-07T13:28:07;7.10;;;2.53;;
45136;SDS011;30894;51.740;19.498;2022-12-07T13:33:28;1.55;;;1.45;;
45136;SDS011;30894;51.740;19.498;2022-12-07T13:35:55;6.03;;;3.13;;
45136;SDS011;30894;51.740;19.498;2022-12-07T13:38:32;3.15;;;1.92;;
45136;SDS011;30894;51.740;19.498;2022-12-07T13:41:12;5.28;;;2.35;;
45136;SDS011;30894;51.740;19.498;2022-12-07T13:43:42;7.07;;;3.10;;
45136;SDS011;30894;51.740;19.498;2022-12-07T13:46:35;6.70;;;4.00;;
45136;SDS011;30894;51.740;19.498;2022-12-07T13:49:33;7.25;;;3.97;;
45136;SDS011;30894;51.740;19.498;2022-12-07T13:52:16;7.60;;;4.50;;
45136;SDS011;30894;51.740;19.498;2022-12-07T13:54:58;6.13;;;3.42;;
45136;SDS011;30894;51.740;19.498;2022-12-07T13:57:39;7.00;;;3.08;;
45136;SDS011;30894;51.740;19.498;2022-12-07T14:05:31;6.07;;;3.60;;
45136;SDS011;30894;51.740;19.498;2022-12-07T14:13:22;6.15;;;3.35;;
45136;SDS011;30894;51.740;19.498;2022-12-07T14:18:46;8.77;;;4.88;;
45136;SDS011;30894;51.740;19.498;2022-12-07T14:23:41;7.22;;;2.88;;
45136;SDS011;30894;51.740;19.498;2022-12-07T14:29:20;4.80;;;3.28;;
45136;SDS011;30894;51.740;19.498;2022-12-07T14:31:48;7.95;;;3.80;;
45136;SDS011;30894;51.740;19.498;2022-12-07T14:34:14;4.63;;;2.97;;
45136;SDS011;30894;51.740;19.498;2022-12-07T14:36:40;4.80;;;2.65;;
45136;SDS011;30894;51.740;19.498;2022-12-07T14:39:07;6.22;;;3.13;;
45136;SDS011;30894;51.740;19.498;2022-12-07T14:41:34;7.90;;;2.58;;
45136;SDS011;30894;51.740;19.498;2022-12-07T14:44:15;5.68;;;3.90;;
45136;SDS011;30894;51.740;19.498;2022-12-07T14:46:44;4.25;;;2.67;;
45136;SDS011;30894;51.740;19.498;2022-12-07T14:49:10;6.45;;;3.25;;
45136;SDS011;30894;51.740;19.498;2022-12-07T14:51:43;8.00;;;3.08;;
45136;SDS011;30894;51.740;19.498;2022-12-07T14:54:18;14.10;;;4.23;;
45136;SDS011;30894;51.740;19.498;2022-12-07T14:57:01;8.60;;;3.70;;
45136;SDS011;30894;51.740;19.498;2022-12-07T14:59:32;4.72;;;2.75;;
45136;SDS011;30894;51.740;19.498;2022-12-07T15:02:23;0.95;;;0.95;;
45136;SDS011;30894;51.740;19.498;2022-12-07T15:04:50;4.57;;;2.83;;
45136;SDS011;30894;51.740;19.498;2022-12-07T15:07:18;4.78;;;1.60;;
45136;SDS011;30894;51.740;19.498;2022-12-07T15:09:46;2.63;;;1.88;;
45136;SDS011;30894;51.740;19.498;2022-12-07T15:12:14;4.60;;;2.22;;
45136;SDS011;30894;51.740;19.498;2022-12-07T15:14:40;4.03;;;2.50;;
45136;SDS011;30894;51.740;19.498;2022-12-07T15:17:10;2.78;;;1.95;;
45136;SDS011;30894;51.740;19.498;2022-12-07T15:19:39;4.30;;;1.02;;
45136;SDS011;30894;51.740;19.498;2022-12-07T15:22:07;5.18;;;2.75;;
45136;SDS011;30894;51.740;19.498;2022-12-07T15:24:36;4.30;;;2.58;;
45136;SDS011;30894;51.740;19.498;2022-12-07T15:27:03;3.53;;;1.92;;
45136;SDS011;30894;51.740;19.498;2022-12-07T15:29:30;4.07;;;2.17;;
45136;SDS011;30894;51.740;19.498;2022-12-07T15:31:57;4.82;;;2.13;;
45136;SDS011;30894;51.740;19.498;2022-12-07T15:34:24;4.45;;;2.70;;
45136;SDS011;30894;51.740;19.498;2022-12-07T15:37:15;4.70;;;2.35;;
45136;SDS011;30894;51.740;19.498;2022-12-07T15:39:41;4.72;;;2.60;;
45136;SDS011;30894;51.740;19.498;2022-12-07T15:42:08;4.13;;;2.67;;
45136;SDS011;30894;51.740;19.498;2022-12-07T15:44:36;3.38;;;1.52;;
45136;SDS011;30894;51.740;19.498;2022-12-07T15:47:22;2.10;;;1.83;;
45136;SDS011;30894;51.740;19.498;2022-12-07T15:49:49;5.25;;;2.20;;
45136;SDS011;30894;51.740;19.498;2022-12-07T15:52:21;5.32;;;3.00;;
45136;SDS011;30894;51.740;19.498;2022-12-07T15:55:03;4.90;;;2.65;;
45136;SDS011;30894;51.740;19.498;2022-12-07T15:57:37;5.13;;;2.63;;
45136;SDS011;30894;51.740;19.498;2022-12-07T16:00:07;4.70;;;2.35;;
45136;SDS011;30894;51.740;19.498;2022-12-07T16:02:40;4.15;;;2.25;;
45136;SDS011;30894;51.740;19.498;2022-12-07T16:05:14;3.78;;;1.83;;
45136;SDS011;30894;51.740;19.498;2022-12-07T16:07:41;5.05;;;2.60;;
45136;SDS011;30894;51.740;19.498;2022-12-07T16:10:07;2.75;;;1.48;;
45136;SDS011;30894;51.740;19.498;2022-12-07T16:12:34;4.32;;;2.33;;
45136;SDS011;30894;51.740;19.498;2022-12-07T16:15:00;3.90;;;2.17;;
45136;SDS011;30894;51.740;19.498;2022-12-07T16:17:27;7.80;;;2.67;;
45136;SDS011;30894;51.740;19.498;2022-12-07T16:19:55;5.35;;;2.47;;
45136;SDS011;30894;51.740;19.498;2022-12-07T16:22:27;5.13;;;3.10;;
45136;SDS011;30894;51.740;19.498;2022-12-07T16:24:54;3.55;;;2.25;;
45136;SDS011;30894;51.740;19.498;2022-12-07T16:27:21;3.58;;;2.08;;
45136;SDS011;30894;51.740;19.498;2022-12-07T16:29:49;4.78;;;2.55;;
45136;SDS011;30894;51.740;19.498;2022-12-07T16:32:30;2.25;;;1.58;;
45136;SDS011;30894;51.740;19.498;2022-12-07T16:34:57;3.25;;;2.10;;
45136;SDS011;30894;51.740;19.498;2022-12-07T16:37:27;3.13;;;2.05;;
45136;SDS011;30894;51.740;19.498;2022-12-07T16:40:13;2.95;;;2.35;;
45136;SDS011;30894;51.740;19.498;2022-12-07T16:42:42;3.80;;;2.00;;
45136;SDS011;30894;51.740;19.498;2022-12-07T16:45:14;2.88;;;1.92;;
45136;SDS011;30894;51.740;19.498;2022-12-07T16:47:50;4.10;;;2.30;;
45136;SDS011;30894;51.740;19.498;2022-12-07T16:50:41;11.43;;;3.20;;
45136;SDS011;30894;51.740;19.498;2022-12-07T16:53:13;3.28;;;2.40;;
45136;SDS011;30894;51.740;19.498;2022-12-07T16:55:54;4.25;;;2.72;;
45136;SDS011;30894;51.740;19.498;2022-12-07T16:58:53;6.53;;;2.38;;
45136;SDS011;30894;51.740;19.498;2022-12-07T17:01:22;7.82;;;2.72;;
45136;SDS011;30894;51.740;19.498;2022-12-07T17:03:50;4.70;;;2.97;;
45136;SDS011;30894;51.740;19.498;2022-12-07T17:06:20;2.88;;;1.77;;
45136;SDS011;30894;51.740;19.498;2022-12-07T17:09:25;4.20;;;2.47;;
45136;SDS011;30894;51.740;19.498;2022-12-07T17:11:51;1.98;;;1.30;;
45136;SDS011;30894;51.740;19.498;2022-12-07T17:14:17;5.85;;;2.83;;
45136;SDS011;30894;51.740;19.498;2022-12-07T17:17:02;7.72;;;3.88;;
45136;SDS011;30894;51.740;19.498;2022-12-07T17:19:32;1.60;;;1.08;;
45136;SDS011;30894;51.740;19.498;2022-12-07T17:21:58;6.05;;;2.80;;
45136;SDS011;30894;51.740;19.498;2022-12-07T17:24:27;6.43;;;2.58;;